createdAt,value
2018-08-23T00:00:29.536Z,101013.84
2018-08-23T00:02:57.030Z,101013.66
2018-08-23T00:05:24.754Z,101010.41
2018-08-23T00:07:57.109Z,101010.08
2018-08-23T00:10:24.637Z,101006.73
2018-08-23T00:12:58.663Z,101005.74
2018-08-23T00:15:31.045Z,100997.77
2018-08-23T00:17:58.563Z,100993.67
2018-08-23T00:20:26.054Z,100996.00
2018-08-23T00:22:53.617Z,100986.69
2018-08-23T00:25:21.392Z,100986.81
2018-08-23T00:27:48.860Z,100982.98
2018-08-23T00:30:17.919Z,100987.62
2018-08-23T00:32:46.384Z,100990.95
2018-08-23T00:35:20.722Z,100988.30
2018-08-23T00:37:47.393Z,100979.33
2018-08-23T00:40:14.882Z,100985.14
2018-08-23T00:42:43.872Z,100982.80
2018-08-23T00:45:17.108Z,100985.39
2018-08-23T00:47:45.677Z,100983.07
2018-08-23T00:50:17.684Z,100986.41
2018-08-23T00:52:46.619Z,100982.64
2018-08-23T00:55:14.929Z,100984.06
2018-08-23T00:57:41.629Z,100986.41
2018-08-23T01:00:09.107Z,100985.08
2018-08-23T01:02:35.773Z,100982.23
2018-08-23T01:05:03.240Z,100975.39
2018-08-23T01:07:31.891Z,100975.49
2018-08-23T01:09:59.464Z,100980.41
2018-08-23T01:12:27.501Z,100987.40
2018-08-23T01:14:55.093Z,100977.59
2018-08-23T01:17:22.613Z,100976.48
2018-08-23T01:19:56.870Z,100970.95
2018-08-23T01:22:24.383Z,100976.27
2018-08-23T01:24:51.919Z,100969.52
2018-08-23T01:27:24.264Z,100968.06
2018-08-23T01:29:52.045Z,100967.41
2018-08-23T01:32:25.259Z,100961.09
2018-08-23T01:34:51.917Z,100952.54
2018-08-23T01:37:26.624Z,100955.70
2018-08-23T01:39:54.188Z,100950.00
2018-08-23T01:42:26.282Z,100953.12
2018-08-23T01:44:53.720Z,100942.80
2018-08-23T01:47:21.356Z,100950.13
2018-08-23T01:49:48.955Z,100940.57
2018-08-23T01:52:16.779Z,100942.08
2018-08-23T01:54:44.356Z,100941.91
2018-08-23T01:57:11.975Z,100943.91
2018-08-23T01:59:39.625Z,100947.90
2018-08-23T02:02:11.296Z,100947.06
2018-08-23T02:04:38.856Z,100944.84
2018-08-23T02:07:06.432Z,100934.59
2018-08-23T02:09:33.096Z,100934.59
2018-08-23T02:12:00.685Z,100931.59
2018-08-23T02:14:30.920Z,100932.44
2018-08-23T02:16:57.581Z,100933.77
2018-08-23T02:19:25.107Z,100924.67
2018-08-23T02:21:51.760Z,100925.84
2018-08-23T02:24:23.984Z,100921.64
2018-08-23T02:26:50.635Z,100922.97
2018-08-23T02:29:21.977Z,100930.92
2018-08-23T02:31:48.639Z,100926.78
2018-08-23T02:34:17.169Z,100925.29
2018-08-23T02:36:45.168Z,100921.73
2018-08-23T02:39:14.256Z,100925.23
2018-08-23T02:41:40.909Z,100915.92
2018-08-23T02:44:07.564Z,100919.78
2018-08-23T02:46:35.109Z,100913.62
2018-08-23T02:49:02.581Z,100919.78
2018-08-23T02:51:40.197Z,100918.73
2018-08-23T02:54:10.361Z,100920.23
2018-08-23T02:56:37.844Z,100917.06
2018-08-23T02:59:06.386Z,100916.52
2018-08-23T03:01:34.128Z,100915.52
2018-08-23T03:04:06.895Z,100909.03
2018-08-23T03:06:55.258Z,100906.16
2018-08-23T03:09:28.357Z,100909.17
2018-08-23T03:11:57.889Z,100907.06
2018-08-23T03:14:26.300Z,100904.33
2018-08-23T03:17:35.981Z,100906.16
2018-08-23T03:20:08.193Z,100922.09
2018-08-23T03:22:35.902Z,100914.20
2018-08-23T03:25:05.848Z,100917.79
2018-08-23T03:27:32.596Z,100909.71
2018-08-23T03:30:01.033Z,100911.25
2018-08-23T03:32:27.904Z,100911.05
2018-08-23T03:34:55.884Z,100906.06
2018-08-23T03:37:22.663Z,100909.09
2018-08-23T03:39:50.141Z,100906.55
2018-08-23T03:42:16.821Z,100899.73
2018-08-23T03:47:17.661Z,100904.95
2018-08-23T03:49:47.308Z,100912.53
2018-08-23T03:52:17.104Z,100906.83
2018-08-23T03:54:51.115Z,100904.73
2018-08-23T03:57:19.341Z,100906.92
2018-08-23T03:59:49.260Z,100905.16
2018-08-23T04:02:18.288Z,100902.89
2018-08-23T04:04:47.312Z,100911.31
2018-08-23T04:07:14.082Z,100916.19
2018-08-23T04:09:41.033Z,100907.89
2018-08-23T04:12:08.707Z,100905.10
2018-08-23T04:14:36.396Z,100905.59
2018-08-23T04:17:03.084Z,100909.44
2018-08-23T04:19:31.708Z,100904.32
2018-08-23T04:21:59.552Z,100908.98
2018-08-23T04:24:26.190Z,100906.82
2018-08-23T04:26:52.842Z,100904.83
2018-08-23T04:29:29.847Z,100900.17
2018-08-23T04:31:57.281Z,100901.29
2018-08-23T04:34:23.924Z,100896.72
2018-08-23T04:36:51.500Z,100894.56
2018-08-23T04:39:18.149Z,100901.34
2018-08-23T04:41:46.652Z,100902.33
2018-08-23T04:44:16.577Z,100896.67
2018-08-23T04:46:44.784Z,100898.63
2018-08-23T04:49:13.525Z,100897.51
2018-08-23T04:51:41.046Z,100897.66
2018-08-23T04:54:07.697Z,100895.34
2018-08-23T04:56:34.341Z,100900.50
2018-08-23T04:59:01.033Z,100894.34
2018-08-23T05:01:27.685Z,100897.55
2018-08-23T05:03:54.377Z,100888.42
2018-08-23T05:06:21.022Z,100885.92
2018-08-23T05:08:47.665Z,100888.29
2018-08-23T05:11:14.740Z,100888.23
2018-08-23T05:13:43.201Z,100885.92
2018-08-23T05:16:10.849Z,100886.91
2018-08-23T05:18:37.484Z,100882.92
2018-08-23T05:21:05.157Z,100884.92
2018-08-23T05:23:32.608Z,100881.64
2018-08-23T05:26:05.132Z,100881.77
2018-08-23T05:28:31.785Z,100878.61
2018-08-23T05:30:59.357Z,100879.10
2018-08-23T05:33:26.084Z,100880.14
2018-08-23T05:35:52.728Z,100876.15
2018-08-23T05:38:19.864Z,100876.98
2018-08-23T05:40:53.255Z,100879.02
2018-08-23T05:43:20.076Z,100870.33
2018-08-23T05:45:51.113Z,100877.70
2018-08-23T05:48:23.821Z,100870.71
2018-08-23T05:50:51.633Z,100865.34
2018-08-23T05:53:19.811Z,100872.05
2018-08-23T05:55:49.968Z,100870.42
2018-08-23T05:58:20.341Z,100871.21
2018-08-23T06:00:48.300Z,100864.72
2018-08-23T06:03:16.756Z,100870.54
2018-08-23T06:05:46.852Z,100870.71
2018-08-23T06:08:14.358Z,100868.88
2018-08-23T06:10:41.559Z,100870.71
2018-08-23T06:13:08.436Z,100867.55
2018-08-23T06:15:39.671Z,100862.59
2018-08-23T06:18:06.601Z,100856.73
2018-08-23T06:20:33.237Z,100860.23
2018-08-23T06:22:59.869Z,100857.41
2018-08-23T06:25:26.505Z,100863.92
2018-08-23T06:27:54.951Z,100862.44
2018-08-23T06:30:21.593Z,100861.11
2018-08-23T06:32:52.033Z,100857.27
2018-08-23T06:35:18.715Z,100858.61
2018-08-23T06:37:50.809Z,100852.41
2018-08-23T06:40:18.452Z,100858.61
2018-08-23T06:42:50.926Z,100857.27
2018-08-23T06:45:17.557Z,100852.58
2018-08-23T06:47:48.250Z,100857.73
2018-08-23T06:50:14.905Z,100855.94
2018-08-23T06:52:47.381Z,100857.11
2018-08-23T06:55:14.032Z,100855.58
2018-08-23T06:57:43.530Z,100850.62
2018-08-23T07:00:10.254Z,100851.45
2018-08-23T07:02:41.512Z,100852.12
2018-08-23T07:05:08.249Z,100851.29
2018-08-23T07:07:34.892Z,100841.81
2018-08-23T07:10:01.565Z,100840.02
2018-08-23T07:12:29.210Z,100838.52
2018-08-23T07:14:56.877Z,100840.84
2018-08-23T07:17:25.401Z,100841.68
2018-08-23T07:19:52.073Z,100840.14
2018-08-23T07:22:22.842Z,100837.35
2018-08-23T07:24:51.404Z,100830.48
2018-08-23T07:27:19.904Z,100841.48
2018-08-23T07:29:48.068Z,100841.64
2018-08-23T07:32:19.416Z,100841.81
2018-08-23T07:34:52.415Z,100847.14
2018-08-23T07:37:19.767Z,100844.30
2018-08-23T07:39:55.260Z,100847.63
2018-08-23T07:42:23.272Z,100852.23
2018-08-23T07:44:50.980Z,100850.95
2018-08-23T07:47:17.659Z,100847.30
2018-08-23T07:49:45.142Z,100847.14
2018-08-23T07:52:13.780Z,100845.34
2018-08-23T07:54:41.388Z,100843.64
2018-08-23T07:57:08.033Z,100843.96
2018-08-23T07:59:35.680Z,100834.94
2018-08-23T08:02:02.365Z,100839.64
2018-08-23T08:04:29.967Z,100837.30
2018-08-23T08:06:57.653Z,100834.32
2018-08-23T08:09:26.117Z,100827.00
2018-08-23T08:11:58.332Z,100838.81
2018-08-23T08:14:33.061Z,100836.45
2018-08-23T08:17:05.479Z,100840.30
2018-08-23T08:19:35.688Z,100840.64
2018-08-23T08:22:02.329Z,100837.35
2018-08-23T08:24:29.809Z,100834.19
2018-08-23T08:26:57.432Z,100831.03
2018-08-23T08:29:30.683Z,100831.86
2018-08-23T08:31:58.190Z,100830.20
2018-08-23T08:34:25.688Z,100824.51
2018-08-23T08:36:53.344Z,100821.38
2018-08-23T08:39:20.868Z,100816.05
2018-08-23T08:41:48.490Z,100816.89
2018-08-23T08:44:16.781Z,100815.19
2018-08-23T08:46:45.045Z,100813.73
2018-08-23T08:49:13.708Z,100813.23
2018-08-23T08:51:40.359Z,100807.41
2018-08-23T08:54:07.825Z,100805.53
2018-08-23T08:56:38.714Z,100804.75
2018-08-23T08:59:05.381Z,100800.55
2018-08-23T09:01:32.101Z,100796.76
2018-08-23T09:03:59.564Z,100798.59
2018-08-23T09:06:30.244Z,100793.27
2018-08-23T09:08:56.916Z,100787.90
2018-08-23T09:11:23.572Z,100782.91
2018-08-23T09:13:50.337Z,100781.78
2018-08-23T09:16:20.031Z,100787.44
2018-08-23T09:18:52.449Z,100783.25
2018-08-23T09:21:19.139Z,100779.41
2018-08-23T09:23:47.355Z,100775.75
2018-08-23T09:26:14.987Z,100774.12
2018-08-23T09:28:41.633Z,100770.64
2018-08-23T09:31:09.328Z,100763.14
2018-08-23T09:33:36.942Z,100761.31
2018-08-23T09:36:04.564Z,100749.00
2018-08-23T09:38:32.183Z,100749.67
2018-08-23T09:40:59.689Z,100751.17
2018-08-23T09:43:26.337Z,100750.17
2018-08-23T09:45:53.856Z,100743.02
2018-08-23T09:48:20.654Z,100736.36
2018-08-23T09:50:48.713Z,100724.38
2018-08-23T09:53:21.909Z,100720.05
2018-08-23T09:55:50.633Z,100719.06
2018-08-23T09:58:25.316Z,100720.22
2018-08-23T10:00:58.819Z,100715.83
2018-08-23T10:03:31.641Z,100711.50
2018-08-23T10:06:04.759Z,100709.70
2018-08-23T10:08:37.149Z,100706.21
2018-08-23T10:11:10.328Z,100701.05
2018-08-23T10:13:43.397Z,100700.86
2018-08-23T10:16:16.456Z,100702.02
2018-08-23T10:18:49.489Z,100699.86
2018-08-23T10:21:17.901Z,100692.23
2018-08-23T10:23:44.556Z,100693.41
2018-08-23T10:26:22.787Z,100682.09
2018-08-23T10:28:49.420Z,100682.22
2018-08-23T10:31:16.251Z,100679.26
2018-08-23T10:33:45.428Z,100671.94
2018-08-23T10:36:13.985Z,100669.78
2018-08-23T10:38:41.627Z,100668.45
2018-08-23T10:41:09.223Z,100665.78
2018-08-23T10:43:43.765Z,100654.14
2018-08-23T10:46:10.405Z,100656.77
2018-08-23T10:48:37.943Z,100660.96
2018-08-23T10:51:05.621Z,100650.64
2018-08-23T10:53:32.264Z,100647.02
2018-08-23T10:55:59.932Z,100649.67
2018-08-23T10:58:27.511Z,100645.69
2018-08-23T11:00:55.088Z,100648.18
2018-08-23T11:03:21.727Z,100638.86
2018-08-23T11:05:49.234Z,100637.70
2018-08-23T11:08:24.968Z,100632.70
2018-08-23T11:10:58.156Z,100631.34
2018-08-23T11:13:31.282Z,100632.34
2018-08-23T11:16:04.420Z,100628.69
2018-08-23T11:18:37.562Z,100622.53
2018-08-23T11:21:05.103Z,100624.00
2018-08-23T11:23:32.669Z,100620.37
2018-08-23T11:26:00.261Z,100611.55
2018-08-23T11:28:27.873Z,100601.27
2018-08-23T11:30:59.928Z,100599.57
2018-08-23T11:33:27.414Z,100608.25
2018-08-23T11:35:55.045Z,100602.09
2018-08-23T11:38:21.765Z,100595.77
2018-08-23T11:40:49.237Z,100588.45
2018-08-23T11:43:17.972Z,100585.42
2018-08-23T11:45:45.514Z,100585.79
2018-08-23T11:48:14.197Z,100590.95
2018-08-23T11:50:41.799Z,100579.97
2018-08-23T11:53:09.553Z,100574.78
2018-08-23T11:55:36.986Z,100573.97
2018-08-23T11:58:04.718Z,100576.30
2018-08-23T12:00:32.161Z,100563.16
2018-08-23T12:02:59.765Z,100574.97
2018-08-23T12:05:27.380Z,100569.66
2018-08-23T12:07:55.205Z,100567.16
2018-08-23T12:10:23.780Z,100562.66
2018-08-23T12:12:52.538Z,100562.66
2018-08-23T12:15:22.677Z,100550.69
2018-08-23T12:17:50.484Z,100544.17
2018-08-23T12:20:18.069Z,100539.34
2018-08-23T12:22:45.652Z,100546.50
2018-08-23T12:25:15.246Z,100543.53
2018-08-23T12:27:47.440Z,100547.19
2018-08-23T12:30:15.130Z,100528.56
2018-08-23T12:32:43.805Z,100523.56
2018-08-23T12:35:11.326Z,100520.08
2018-08-23T12:37:44.508Z,100525.90
2018-08-23T12:40:17.643Z,100509.22
2018-08-23T12:42:48.675Z,100512.19
2018-08-23T12:45:16.969Z,100517.53
2018-08-23T12:47:44.757Z,100520.88
2018-08-23T12:50:13.785Z,100514.89
2018-08-23T12:52:40.804Z,100507.58
2018-08-23T12:55:08.300Z,100504.74
2018-08-23T12:57:35.872Z,100501.58
2018-08-23T13:00:02.529Z,100496.26
2018-08-23T13:02:29.228Z,100489.10
2018-08-23T13:04:55.897Z,100489.60
2018-08-23T13:07:22.540Z,100487.77
2018-08-23T13:09:49.181Z,100487.30
2018-08-23T13:12:16.151Z,100479.47
2018-08-23T13:14:44.124Z,100483.31
2018-08-23T13:17:10.896Z,100475.80
2018-08-23T13:19:37.637Z,100470.83
2018-08-23T13:22:05.208Z,100462.84
2018-08-23T13:24:32.444Z,100465.84
2018-08-23T13:26:59.121Z,100461.34
2018-08-23T13:29:26.200Z,100458.68
2018-08-23T13:31:52.922Z,100458.18
2018-08-23T13:34:19.588Z,100454.69
2018-08-23T13:36:47.103Z,100451.52
2018-08-23T13:39:14.753Z,100446.05
2018-08-23T13:41:41.928Z,100447.37
2018-08-23T13:44:09.548Z,100450.87
2018-08-23T13:46:37.225Z,100446.38
2018-08-23T13:49:04.709Z,100439.53
2018-08-23T13:51:32.324Z,100438.06
2018-08-23T13:53:59.626Z,100429.21
2018-08-23T13:56:26.293Z,100420.73
2018-08-23T13:58:54.939Z,100421.73
2018-08-23T14:01:25.265Z,100420.57
2018-08-23T14:03:53.222Z,100414.92
2018-08-23T14:06:20.956Z,100421.73
2018-08-23T14:08:48.449Z,100414.25
2018-08-23T14:11:15.180Z,100410.75
2018-08-23T14:13:41.813Z,100403.58
2018-08-23T14:16:09.423Z,100396.61
2018-08-23T14:18:37.061Z,100390.62
2018-08-23T14:21:04.849Z,100384.95
2018-08-23T14:23:32.478Z,100388.12
2018-08-23T14:26:00.152Z,100384.13
2018-08-23T14:28:27.616Z,100386.14
2018-08-23T14:30:54.367Z,100371.83
2018-08-23T14:33:21.923Z,100367.15
2018-08-23T14:35:49.621Z,100363.98
2018-08-23T14:38:17.285Z,100368.16
2018-08-23T14:40:47.588Z,100362.52
2018-08-23T14:43:15.239Z,100359.53
2018-08-23T14:45:44.201Z,100362.84
2018-08-23T14:48:14.209Z,100356.19
2018-08-23T14:50:41.792Z,100361.51
2018-08-23T14:53:09.461Z,100352.70
2018-08-23T14:55:43.888Z,100345.54
2018-08-23T14:58:11.560Z,100339.20
2018-08-23T15:00:39.216Z,100339.06
2018-08-23T15:03:05.868Z,100331.91
2018-08-23T15:05:32.508Z,100331.08
2018-08-23T15:07:59.988Z,100326.58
2018-08-23T15:10:26.649Z,100325.58
2018-08-23T15:12:53.317Z,100330.91
2018-08-23T15:15:24.557Z,100324.25
2018-08-23T15:17:52.195Z,100329.25
2018-08-23T15:20:18.856Z,100321.41
2018-08-23T15:22:45.497Z,100319.75
2018-08-23T15:25:14.603Z,100327.73
2018-08-23T15:27:49.049Z,100323.09
2018-08-23T15:30:15.693Z,100320.09
2018-08-23T15:32:43.424Z,100325.75
2018-08-23T15:35:10.172Z,100322.27
2018-08-23T15:37:36.825Z,100326.08
2018-08-23T15:40:03.553Z,100323.75
2018-08-23T15:42:30.201Z,100317.27
2018-08-23T15:44:56.841Z,100318.28
2018-08-23T15:47:23.619Z,100315.27
2018-08-23T15:49:50.268Z,100315.95
2018-08-23T15:52:17.604Z,100313.28
2018-08-23T15:54:44.493Z,100299.15
2018-08-23T15:57:11.156Z,100303.14
2018-08-23T15:59:37.805Z,100304.11
2018-08-23T16:02:05.467Z,100294.14
2018-08-23T16:04:33.052Z,100300.80
2018-08-23T16:06:59.720Z,100298.96
2018-08-23T16:09:27.317Z,100295.98
2018-08-23T16:11:54.985Z,100293.81
2018-08-23T16:14:22.605Z,100294.97
2018-08-23T16:16:55.956Z,100294.47
2018-08-23T16:19:28.309Z,100285.32
2018-08-23T16:21:57.307Z,100282.66
2018-08-23T16:24:24.291Z,100283.16
2018-08-23T16:26:57.544Z,100283.17
2018-08-23T16:29:25.102Z,100280.00
2018-08-23T16:31:51.803Z,100275.50
2018-08-23T16:34:19.237Z,100279.68
2018-08-23T16:36:47.985Z,100277.34
2018-08-23T16:39:15.497Z,100272.67
2018-08-23T16:41:42.185Z,100271.33
2018-08-23T16:44:09.829Z,100273.85
2018-08-23T16:46:36.475Z,100269.36
2018-08-23T16:49:03.129Z,100269.36
2018-08-23T16:51:29.840Z,100267.02
2018-08-23T16:53:56.868Z,100265.70
2018-08-23T16:56:24.453Z,100266.70
2018-08-23T16:58:52.021Z,100261.70
2018-08-23T17:01:18.665Z,100264.36
2018-08-23T17:03:49.907Z,100260.37
2018-08-23T17:06:17.253Z,100262.53
2018-08-23T17:08:46.378Z,100263.03
2018-08-23T17:11:15.296Z,100264.03
2018-08-23T17:13:44.056Z,100262.20
2018-08-23T17:16:17.433Z,100267.34
2018-08-23T17:18:47.327Z,100272.34
2018-08-23T17:21:15.597Z,100296.30
2018-08-23T17:23:44.324Z,100307.77
2018-08-23T17:26:10.972Z,100337.55
2018-08-23T17:28:39.023Z,100344.89
2018-08-23T17:31:05.660Z,100358.20
2018-08-23T17:33:32.320Z,100362.52
2018-08-23T17:35:59.010Z,100378.64
2018-08-23T17:38:27.884Z,100382.80
2018-08-23T17:40:54.525Z,100390.45
2018-08-23T17:43:21.212Z,100397.44
2018-08-23T17:45:50.065Z,100412.08
2018-08-23T17:48:17.766Z,100410.11
2018-08-23T17:50:44.456Z,100426.22
2018-08-23T17:53:12.147Z,100427.41
2018-08-23T17:55:38.844Z,100431.05
2018-08-23T17:58:05.536Z,100442.86
2018-08-23T18:00:33.153Z,100444.21
2018-08-23T18:03:00.825Z,100448.84
2018-08-23T18:05:28.429Z,100454.48
2018-08-23T18:07:56.092Z,100454.48
2018-08-23T18:10:23.781Z,100453.66
2018-08-23T18:12:51.394Z,100455.16
2018-08-23T18:15:19.036Z,100458.64
2018-08-23T18:17:45.707Z,100453.82
2018-08-23T18:20:14.291Z,100463.47
2018-08-23T18:22:41.884Z,100460.48
2018-08-23T18:25:09.452Z,100469.29
2018-08-23T18:27:36.109Z,100465.47
2018-08-23T18:30:02.769Z,100475.44
2018-08-23T18:32:30.364Z,100484.63
2018-08-23T18:34:57.922Z,100501.75
2018-08-23T18:37:24.761Z,100511.23
2018-08-23T18:39:52.231Z,100534.52
2018-08-23T18:42:19.895Z,100531.36
2018-08-23T18:44:47.713Z,100527.53
2018-08-23T18:47:14.848Z,100516.89
2018-08-23T18:49:42.361Z,100511.23
2018-08-23T18:52:09.011Z,100511.37
2018-08-23T18:54:35.664Z,100516.56
2018-08-23T18:57:02.294Z,100513.88
2018-08-23T18:59:28.938Z,100501.73
2018-08-23T19:01:55.610Z,100498.56
2018-08-23T19:04:22.261Z,100503.89
2018-08-23T19:06:48.997Z,100504.39
2018-08-23T19:09:15.653Z,100506.88
2018-08-23T19:11:43.810Z,100506.88
2018-08-23T19:14:10.460Z,100499.39
2018-08-23T19:16:43.434Z,100495.91
2018-08-23T19:19:10.057Z,100491.39
2018-08-23T19:21:37.116Z,100478.11
2018-08-23T19:24:04.732Z,100467.79
2018-08-23T19:26:31.393Z,100464.16
2018-08-23T19:28:58.939Z,100467.15
2018-08-23T19:31:25.677Z,100455.17
2018-08-23T19:33:52.401Z,100440.70
2018-08-23T19:36:20.056Z,100450.34
2018-08-23T19:38:47.920Z,100453.84
2018-08-23T19:41:14.591Z,100460.16
2018-08-23T19:43:41.222Z,100454.02
2018-08-23T19:46:14.364Z,100445.66
2018-08-23T19:48:41.635Z,100444.82
2018-08-23T19:51:09.284Z,100442.02
2018-08-23T19:53:36.952Z,100440.34
2018-08-23T19:56:04.824Z,100434.69
2018-08-23T19:58:31.488Z,100436.84
2018-08-23T20:00:59.026Z,100435.02
2018-08-23T20:03:26.563Z,100436.34
2018-08-23T20:05:53.200Z,100432.22
2018-08-23T20:08:19.846Z,100430.71
2018-08-23T20:10:48.209Z,100425.89
2018-08-23T20:13:15.857Z,100428.23
2018-08-23T20:15:43.185Z,100429.05
2018-08-23T20:18:10.874Z,100423.73
2018-08-23T20:20:38.577Z,100423.87
2018-08-23T20:23:06.208Z,100421.71
2018-08-23T20:25:33.809Z,100424.23
2018-08-23T20:28:01.389Z,100432.72
2018-08-23T20:30:28.045Z,100423.04
2018-08-23T20:32:55.545Z,100420.37
2018-08-23T20:35:22.199Z,100420.73
2018-08-23T20:37:49.837Z,100420.23
2018-08-23T20:40:17.926Z,100413.59
2018-08-23T20:42:45.549Z,100415.06
2018-08-23T20:45:13.647Z,100411.06
2018-08-23T20:47:40.289Z,100412.39
2018-08-23T20:50:06.925Z,100403.58
2018-08-23T20:52:34.587Z,100403.44
2018-08-23T20:55:01.226Z,100398.45
2018-08-23T20:57:27.865Z,100397.44
2018-08-23T20:59:55.422Z,100399.10
2018-08-23T21:02:22.084Z,100398.77
2018-08-23T21:04:48.732Z,100389.96
2018-08-23T21:07:15.744Z,100388.45
2018-08-23T21:09:42.392Z,100391.62
2018-08-23T21:12:09.898Z,100382.98
2018-08-23T21:14:37.488Z,100384.45
2018-08-23T21:17:04.141Z,100387.94
2018-08-23T21:19:31.589Z,100387.94
2018-08-23T21:21:59.245Z,100385.78
2018-08-23T21:24:25.904Z,100394.59
2018-08-23T21:26:53.353Z,100395.92
2018-08-23T21:29:20.952Z,100402.11
2018-08-23T21:31:49.449Z,100399.45
2018-08-23T21:34:17.988Z,100405.74
2018-08-23T21:36:45.865Z,100404.41
2018-08-23T21:39:13.956Z,100397.26
2018-08-23T21:41:40.600Z,100402.11
2018-08-23T21:44:08.170Z,100400.92
2018-08-23T21:46:34.805Z,100403.08
2018-08-23T21:49:02.457Z,100396.79
2018-08-23T21:51:30.098Z,100403.58
2018-08-23T21:53:56.993Z,100396.09
2018-08-23T21:56:24.660Z,100384.95
2018-08-23T21:58:51.324Z,100381.79
2018-08-23T22:01:19.590Z,100384.81
2018-08-23T22:03:48.245Z,100380.95
2018-08-23T22:06:15.856Z,100392.44
2018-08-23T22:08:44.808Z,100394.59
2018-08-23T22:11:12.413Z,100390.77
2018-08-23T22:13:40.045Z,100386.78
2018-08-23T22:16:06.689Z,100386.61
2018-08-23T22:18:34.328Z,100387.94
2018-08-23T22:21:01.972Z,100380.95
2018-08-23T22:23:29.560Z,100371.50
2018-08-23T22:25:57.200Z,100378.98
2018-08-23T22:28:25.475Z,100386.61
2018-08-23T22:30:53.040Z,100383.12
2018-08-23T22:33:19.669Z,100381.79
2018-08-23T22:35:47.892Z,100380.45
2018-08-23T22:38:15.356Z,100367.51
2018-08-23T22:40:43.500Z,100366.65
2018-08-23T22:43:11.116Z,100362.66
2018-08-23T22:45:38.751Z,100369.17
2018-08-23T22:48:06.412Z,100367.51
2018-08-23T22:50:33.050Z,100370.50
2018-08-23T22:53:00.711Z,100356.69
2018-08-23T22:55:28.317Z,100352.70
2018-08-23T22:57:55.913Z,100356.86
2018-08-23T23:00:28.134Z,100352.52
2018-08-23T23:02:55.624Z,100356.17
2018-08-23T23:05:23.170Z,100352.36
2018-08-23T23:07:49.761Z,100361.50
2018-08-23T23:10:17.601Z,100362.66
2018-08-23T23:12:45.229Z,100355.53
2018-08-23T23:15:17.619Z,100353.84
2018-08-23T23:17:45.089Z,100355.84
2018-08-23T23:20:13.276Z,100353.84
2018-08-23T23:22:40.924Z,100346.03
2018-08-23T23:25:07.573Z,100343.20
2018-08-23T23:27:35.160Z,100345.72
2018-08-23T23:30:02.814Z,100336.55
2018-08-23T23:32:30.492Z,100337.38
2018-08-23T23:34:57.980Z,100335.71
2018-08-23T23:37:25.636Z,100345.72
2018-08-23T23:39:53.133Z,100345.03
2018-08-23T23:42:19.809Z,100348.02
2018-08-23T23:44:48.369Z,100340.53
2018-08-23T23:47:15.004Z,100336.04
2018-08-23T23:49:41.671Z,100336.91
2018-08-23T23:52:08.314Z,100340.72
2018-08-23T23:54:34.990Z,100341.87
2018-08-23T23:57:01.649Z,100334.56
2018-08-23T23:59:28.288Z,100335.90
